createdAt,value
2023-02-27T00:01:47.712Z,1.10
2023-02-27T00:04:20.939Z,1.10
2023-02-27T00:06:54.731Z,1.10
2023-02-27T00:09:28.486Z,1.10
2023-02-27T00:12:01.793Z,1.10
2023-02-27T00:14:34.869Z,1.10
2023-02-27T00:17:08.269Z,1.10
2023-02-27T00:19:41.333Z,1.10
2023-02-27T00:22:14.414Z,1.10
2023-02-27T00:24:47.390Z,1.10
2023-02-27T00:27:20.431Z,1.10
2023-02-27T00:29:53.415Z,1.10
2023-02-27T00:32:26.681Z,1.10
2023-02-27T00:34:59.690Z,1.10
2023-02-27T00:37:32.808Z,1.10
2023-02-27T00:40:06.739Z,1.10
2023-02-27T00:42:40.212Z,1.08
2023-02-27T00:45:14.981Z,1.10
2023-02-27T00:47:48.231Z,1.10
2023-02-27T00:50:21.753Z,1.10
2023-02-27T00:52:54.813Z,1.06
2023-02-27T00:55:27.957Z,1.02
2023-02-27T00:58:01.039Z,1.00
2023-02-27T01:00:34.198Z,1.00
2023-02-27T01:03:07.530Z,1.00
2023-02-27T01:05:40.855Z,1.00
2023-02-27T01:08:14.596Z,1.00
2023-02-27T01:10:47.840Z,0.94
2023-02-27T01:13:20.881Z,0.90
2023-02-27T01:15:54.206Z,0.90
2023-02-27T01:18:27.336Z,0.92
2023-02-27T01:21:01.824Z,0.98
2023-02-27T01:23:34.973Z,0.96
2023-02-27T01:26:08.338Z,0.92
2023-02-27T01:28:41.497Z,0.92
2023-02-27T01:31:15.102Z,0.94
2023-02-27T01:33:49.264Z,0.90
2023-02-27T01:36:22.491Z,0.90
2023-02-27T01:38:55.578Z,0.90
2023-02-27T01:41:30.042Z,0.90
2023-02-27T01:44:06.602Z,0.90
2023-02-27T01:46:40.449Z,0.90
2023-02-27T01:49:19.127Z,0.88
2023-02-27T01:52:02.099Z,0.80
2023-02-27T01:54:38.105Z,0.80
2023-02-27T01:57:11.806Z,0.80
2023-02-27T01:59:45.921Z,0.82
2023-02-27T02:02:25.615Z,0.82
2023-02-27T02:05:00.454Z,0.88
2023-02-27T02:07:34.877Z,0.88
2023-02-27T02:10:09.876Z,0.84
2023-02-27T02:12:44.296Z,0.80
2023-02-27T02:15:18.348Z,0.80
2023-02-27T02:18:03.389Z,0.80
2023-02-27T02:21:33.889Z,0.80
2023-02-27T02:25:18.005Z,0.80
2023-02-27T02:28:18.659Z,0.80
2023-02-27T02:31:29.493Z,0.80
2023-02-27T02:34:34.893Z,0.80
2023-02-27T02:37:46.098Z,0.80
2023-02-27T02:40:33.439Z,0.80
2023-02-27T02:43:13.178Z,0.80
2023-02-27T02:45:56.030Z,0.80
2023-02-27T02:48:37.703Z,0.80
2023-02-27T02:51:20.088Z,0.80
2023-02-27T02:54:01.826Z,0.80
2023-02-27T02:56:40.996Z,0.80
2023-02-27T02:59:19.608Z,0.80
2023-02-27T03:01:58.416Z,0.80
2023-02-27T03:04:41.064Z,0.80
2023-02-27T03:07:22.796Z,0.78
2023-02-27T03:10:05.337Z,0.80
2023-02-27T03:12:41.296Z,0.80
2023-02-27T03:15:19.776Z,0.72
2023-02-27T03:18:01.864Z,0.70
2023-02-27T03:20:39.956Z,0.70
2023-02-27T03:23:19.341Z,0.70
2023-02-27T03:25:56.612Z,0.70
2023-02-27T03:28:37.111Z,0.70
2023-02-27T03:31:15.595Z,0.70
2023-02-27T03:33:55.154Z,0.74
2023-02-27T03:36:45.389Z,0.70
2023-02-27T03:39:32.777Z,0.72
2023-02-27T03:42:16.397Z,0.70
2023-02-27T03:45:21.640Z,0.70
2023-02-27T03:47:55.278Z,0.70
2023-02-27T03:50:28.521Z,0.70
2023-02-27T03:53:02.281Z,0.66
2023-02-27T03:55:41.419Z,0.66
2023-02-27T03:58:14.685Z,0.66
2023-02-27T04:00:47.908Z,0.70
2023-02-27T04:03:21.494Z,0.70
2023-02-27T04:05:55.357Z,0.70
2023-02-27T04:08:57.628Z,0.70
2023-02-27T04:11:52.828Z,0.70
2023-02-27T04:14:46.514Z,0.70
2023-02-27T04:17:25.915Z,0.64
2023-02-27T04:20:31.361Z,0.66
2023-02-27T04:23:07.914Z,0.64
2023-02-27T04:25:56.107Z,0.62
2023-02-27T04:28:41.856Z,0.60
2023-02-27T04:31:20.183Z,0.62
2023-02-27T04:34:00.408Z,0.66
2023-02-27T04:36:39.236Z,0.60
2023-02-27T04:39:21.234Z,0.60
2023-02-27T04:41:59.925Z,0.60
2023-02-27T04:44:36.274Z,0.60
2023-02-27T04:47:12.738Z,0.60
2023-02-27T04:49:51.752Z,0.60
2023-02-27T04:52:29.499Z,0.60
2023-02-27T04:55:11.362Z,0.56
2023-02-27T04:57:51.314Z,0.56
2023-02-27T05:00:27.419Z,0.56
2023-02-27T05:03:11.176Z,0.50
2023-02-27T05:05:47.591Z,0.50
2023-02-27T05:08:27.890Z,0.50
2023-02-27T05:11:09.445Z,0.50
2023-02-27T05:13:48.234Z,0.50
2023-02-27T05:16:28.214Z,0.50
2023-02-27T05:19:03.176Z,0.50
2023-02-27T05:21:42.547Z,0.50
2023-02-27T05:24:25.343Z,0.50
2023-02-27T05:27:21.525Z,0.50
2023-02-27T05:29:57.750Z,0.50
2023-02-27T05:32:41.047Z,0.48
2023-02-27T05:35:27.340Z,0.50
2023-02-27T05:38:10.882Z,0.46
2023-02-27T05:40:48.297Z,0.50
2023-02-27T05:43:27.619Z,0.50
2023-02-27T05:46:06.757Z,0.50
2023-02-27T05:48:44.742Z,0.50
2023-02-27T05:51:20.997Z,0.50
2023-02-27T05:53:59.731Z,0.50
2023-02-27T05:56:35.036Z,0.50
2023-02-27T05:59:12.965Z,0.50
2023-02-27T06:01:46.578Z,0.50
2023-02-27T06:04:19.823Z,0.54
2023-02-27T06:06:53.192Z,0.60
2023-02-27T06:09:26.269Z,0.60
2023-02-27T06:12:00.380Z,0.60
2023-02-27T06:14:33.489Z,0.60
2023-02-27T06:17:07.167Z,0.68
2023-02-27T06:19:40.250Z,0.70
2023-02-27T06:22:13.772Z,0.70
2023-02-27T06:24:46.943Z,0.70
2023-02-27T06:27:20.108Z,0.70
2023-02-27T06:29:53.761Z,0.70
2023-02-27T06:32:27.069Z,0.72
2023-02-27T06:35:00.241Z,0.80
2023-02-27T06:37:33.332Z,0.80
2023-02-27T06:40:11.668Z,0.80
2023-02-27T06:42:46.021Z,0.80
2023-02-27T06:45:20.013Z,0.90
2023-02-27T06:47:53.272Z,0.90
2023-02-27T06:50:26.403Z,0.90
2023-02-27T06:52:59.645Z,1.00
2023-02-27T06:55:32.722Z,1.00
2023-02-27T06:58:06.132Z,1.00
2023-02-27T07:00:39.326Z,1.10
2023-02-27T07:03:13.644Z,1.10
2023-02-27T07:05:46.863Z,1.10
2023-02-27T07:08:20.068Z,1.12
2023-02-27T07:10:53.423Z,1.20
2023-02-27T07:13:26.574Z,1.16
2023-02-27T07:15:59.605Z,1.18
2023-02-27T07:18:32.660Z,1.20
2023-02-27T07:21:05.882Z,1.20
2023-02-27T07:23:39.020Z,1.30
2023-02-27T07:26:12.281Z,1.28
2023-02-27T07:28:45.499Z,1.30
2023-02-27T07:31:19.092Z,1.30
2023-02-27T07:33:52.215Z,1.38
2023-02-27T07:36:26.061Z,1.40
2023-02-27T07:38:59.609Z,1.50
2023-02-27T07:41:32.694Z,1.50
2023-02-27T07:44:08.803Z,1.50
2023-02-27T07:46:41.949Z,1.58
2023-02-27T07:49:15.990Z,1.62
2023-02-27T07:51:49.287Z,1.70
2023-02-27T07:54:22.666Z,1.70
2023-02-27T07:56:55.703Z,1.80
2023-02-27T07:59:28.914Z,1.90
2023-02-27T08:02:02.023Z,1.98
2023-02-27T08:04:35.180Z,2.06
2023-02-27T08:07:08.682Z,2.10
2023-02-27T08:09:41.729Z,2.20
2023-02-27T08:12:14.766Z,2.30
2023-02-27T08:14:47.853Z,2.40
2023-02-27T08:17:21.199Z,2.50
2023-02-27T08:19:54.319Z,2.60
2023-02-27T08:22:27.352Z,2.70
2023-02-27T08:25:01.335Z,2.78
2023-02-27T08:27:34.461Z,2.80
2023-02-27T08:30:10.467Z,2.86
2023-02-27T08:32:44.008Z,2.90
2023-02-27T08:35:17.621Z,2.90
2023-02-27T08:37:50.846Z,3.00
2023-02-27T08:40:25.731Z,3.10
2023-02-27T08:42:58.805Z,3.20
2023-02-27T08:45:31.998Z,3.36
2023-02-27T08:48:05.237Z,3.48
2023-02-27T08:50:38.402Z,3.50
2023-02-27T08:53:12.012Z,3.60
2023-02-27T08:55:45.136Z,3.70
2023-02-27T08:58:18.442Z,3.70
2023-02-27T09:00:51.612Z,3.80
2023-02-27T09:03:28.869Z,3.90
2023-02-27T09:06:02.127Z,4.00
2023-02-27T09:08:35.265Z,4.20
2023-02-27T09:11:08.967Z,4.36
2023-02-27T09:13:42.091Z,4.50
2023-02-27T09:16:15.154Z,4.60
2023-02-27T09:18:48.550Z,4.72
2023-02-27T09:21:22.820Z,4.90
2023-02-27T09:24:02.487Z,5.10
2023-02-27T09:26:45.896Z,5.26
2023-02-27T09:29:19.612Z,5.30
2023-02-27T09:31:53.547Z,5.30
2023-02-27T09:34:27.056Z,5.30
2023-02-27T09:37:03.272Z,5.14
2023-02-27T09:39:36.472Z,5.10
2023-02-27T09:42:17.313Z,5.10
2023-02-27T09:44:53.414Z,5.10
2023-02-27T09:47:35.031Z,5.18
2023-02-27T09:50:20.722Z,5.48
2023-02-27T09:52:53.887Z,5.80
2023-02-27T09:55:31.508Z,5.90
2023-02-27T09:58:09.411Z,6.00
2023-02-27T10:01:07.492Z,6.16
2023-02-27T10:04:02.682Z,6.40
2023-02-27T10:06:43.727Z,6.70
2023-02-27T10:09:35.722Z,6.90
2023-02-27T10:12:36.228Z,6.90
2023-02-27T10:15:17.858Z,6.92
2023-02-27T10:17:54.499Z,7.12
2023-02-27T10:20:32.496Z,7.40
2023-02-27T10:23:13.038Z,7.38
2023-02-27T10:25:49.533Z,7.30
2023-02-27T10:28:25.394Z,7.30
2023-02-27T10:31:01.327Z,7.30
2023-02-27T10:33:39.850Z,7.60
2023-02-27T10:36:30.629Z,7.98
2023-02-27T10:39:10.227Z,8.30
2023-02-27T10:41:44.616Z,8.60
2023-02-27T10:44:20.585Z,8.80
2023-02-27T10:46:53.833Z,8.80
2023-02-27T10:49:30.229Z,8.60
2023-02-27T10:52:14.455Z,8.40
2023-02-27T10:54:48.513Z,8.06
2023-02-27T10:57:34.494Z,7.80
2023-02-27T11:00:24.645Z,7.62
2023-02-27T11:02:58.754Z,7.60
2023-02-27T11:05:34.441Z,7.40
2023-02-27T11:08:24.933Z,7.20
2023-02-27T11:11:04.588Z,7.10
2023-02-27T11:13:40.412Z,7.00
2023-02-27T11:16:17.709Z,7.10
2023-02-27T11:18:54.501Z,7.16
2023-02-27T11:21:31.116Z,7.44
2023-02-27T11:24:08.204Z,7.88
2023-02-27T11:26:55.361Z,8.30
2023-02-27T11:29:29.177Z,8.70
2023-02-27T11:32:06.494Z,9.10
2023-02-27T11:34:47.843Z,9.20
2023-02-27T11:37:32.211Z,9.10
2023-02-27T11:40:19.272Z,9.20
2023-02-27T11:42:56.662Z,9.40
2023-02-27T11:46:10.753Z,9.20
2023-02-27T11:48:37.709Z,8.90
2023-02-27T11:51:52.221Z,7.94
2023-02-27T11:54:37.547Z,7.06
2023-02-27T11:57:25.098Z,6.52
2023-02-27T12:00:06.676Z,5.88
2023-02-27T12:02:55.447Z,5.30
2023-02-27T12:05:32.345Z,5.00
2023-02-27T12:08:13.226Z,4.72
2023-02-27T12:11:07.747Z,4.50
2023-02-27T12:13:50.938Z,4.40
2023-02-27T12:16:33.110Z,4.30
2023-02-27T12:19:17.312Z,4.30
2023-02-27T12:21:54.574Z,4.20
2023-02-27T12:24:33.614Z,4.22
2023-02-27T12:27:18.700Z,4.30
2023-02-27T12:29:56.329Z,4.40
2023-02-27T12:32:39.584Z,4.60
2023-02-27T12:35:21.434Z,4.60
2023-02-27T12:37:55.136Z,4.66
2023-02-27T12:40:37.794Z,4.60
2023-02-27T12:43:29.368Z,4.54
2023-02-27T12:46:25.550Z,4.44
2023-02-27T12:49:17.247Z,4.40
2023-02-27T12:52:05.266Z,4.40
2023-02-27T12:54:58.258Z,4.36
2023-02-27T12:57:47.933Z,4.40
2023-02-27T13:00:26.656Z,4.30
2023-02-27T13:03:13.261Z,4.32
2023-02-27T13:05:59.313Z,4.30
2023-02-27T13:09:03.670Z,4.40
2023-02-27T13:11:53.161Z,4.40
2023-02-27T13:14:40.758Z,4.34
2023-02-27T13:17:24.129Z,4.30
2023-02-27T13:20:02.613Z,4.30
2023-02-27T13:22:45.028Z,4.20
2023-02-27T13:25:21.016Z,4.20
2023-02-27T13:28:00.433Z,4.20
2023-02-27T13:30:37.906Z,4.12
2023-02-27T13:33:26.412Z,4.10
2023-02-27T13:36:19.132Z,4.02
2023-02-27T13:38:54.309Z,3.90
2023-02-27T13:41:43.027Z,3.90
2023-02-27T13:44:44.566Z,3.90
2023-02-27T13:47:48.925Z,3.90
2023-02-27T13:50:55.056Z,3.88
2023-02-27T13:53:29.282Z,3.90
2023-02-27T13:56:22.176Z,3.82
2023-02-27T13:58:57.870Z,3.80
2023-02-27T14:01:35.255Z,3.78
2023-02-27T14:04:19.036Z,3.70
2023-02-27T14:06:52.596Z,3.70
2023-02-27T14:09:26.225Z,3.70
2023-02-27T14:12:03.845Z,3.60
2023-02-27T14:14:50.969Z,3.50
2023-02-27T14:17:49.582Z,3.42
2023-02-27T14:20:54.442Z,3.30
2023-02-27T14:23:29.418Z,3.20
2023-02-27T14:26:07.427Z,3.18
2023-02-27T14:28:49.146Z,3.10
2023-02-27T14:31:29.561Z,3.10
2023-02-27T14:34:06.032Z,3.10
2023-02-27T14:36:47.598Z,3.02
2023-02-27T14:39:28.176Z,3.00
2023-02-27T14:42:20.460Z,3.00
2023-02-27T14:44:54.271Z,3.00
2023-02-27T14:47:34.723Z,3.00
2023-02-27T14:50:09.726Z,2.94
2023-02-27T14:52:47.479Z,2.90
2023-02-27T14:55:28.283Z,2.90
2023-02-27T14:58:11.080Z,2.90
2023-02-27T15:00:50.716Z,2.90
2023-02-27T15:03:26.638Z,2.90
2023-02-27T15:06:03.985Z,2.94
2023-02-27T15:08:42.540Z,3.00
2023-02-27T15:11:21.104Z,3.00
2023-02-27T15:14:00.223Z,3.10
2023-02-27T15:16:40.656Z,3.10
2023-02-27T15:19:23.178Z,3.10
2023-02-27T15:21:59.974Z,3.10
2023-02-27T15:24:49.323Z,3.10
2023-02-27T15:27:26.793Z,3.04
2023-02-27T15:30:01.953Z,3.02
2023-02-27T15:32:37.692Z,3.02
2023-02-27T15:35:20.617Z,3.00
2023-02-27T15:37:57.798Z,3.00
2023-02-27T15:40:34.168Z,2.90
2023-02-27T15:43:08.993Z,2.90
2023-02-27T15:45:43.376Z,2.90
2023-02-27T15:48:18.905Z,2.80
2023-02-27T15:50:56.340Z,2.80
2023-02-27T15:53:34.301Z,2.72
2023-02-27T15:56:14.270Z,2.70
2023-02-27T15:58:54.673Z,2.70
2023-02-27T16:01:30.879Z,2.60
2023-02-27T16:04:07.256Z,2.60
2023-02-27T16:06:42.475Z,2.60
2023-02-27T16:09:28.864Z,2.52
2023-02-27T16:12:34.903Z,2.50
2023-02-27T16:15:34.910Z,2.50
2023-02-27T16:18:29.653Z,2.50
2023-02-27T16:21:15.813Z,2.50
2023-02-27T16:23:50.084Z,2.40
2023-02-27T16:26:31.905Z,2.40
2023-02-27T16:29:08.485Z,2.40
2023-02-27T16:31:47.638Z,2.32
2023-02-27T16:34:44.264Z,2.30
2023-02-27T16:37:27.705Z,2.30
2023-02-27T16:40:02.296Z,2.30
2023-02-27T16:42:35.467Z,2.30
2023-02-27T16:45:17.811Z,2.30
2023-02-27T16:47:53.855Z,2.20
2023-02-27T16:50:32.646Z,2.20
2023-02-27T16:53:05.865Z,2.20
2023-02-27T16:55:44.032Z,2.20
2023-02-27T16:58:19.112Z,2.20
2023-02-27T17:00:52.280Z,2.20
2023-02-27T17:03:25.426Z,2.20
2023-02-27T17:05:59.121Z,2.20
2023-02-27T17:08:32.691Z,2.20
2023-02-27T17:11:06.418Z,2.20
2023-02-27T17:13:41.330Z,2.20
2023-02-27T17:16:15.703Z,2.20
2023-02-27T17:18:48.961Z,2.18
2023-02-27T17:21:22.089Z,2.16
2023-02-27T17:23:55.276Z,2.10
2023-02-27T17:26:29.083Z,2.10
2023-02-27T17:29:02.926Z,2.10
2023-02-27T17:31:36.361Z,2.10
2023-02-27T17:34:10.129Z,2.10
2023-02-27T17:36:43.260Z,2.10
2023-02-27T17:39:17.700Z,2.02
2023-02-27T17:41:53.160Z,2.00
2023-02-27T17:44:27.193Z,2.00
2023-02-27T17:47:00.423Z,2.00
2023-02-27T17:49:33.634Z,1.92
2023-02-27T17:52:08.151Z,1.90
2023-02-27T17:54:41.523Z,1.80
2023-02-27T17:57:14.750Z,1.80
2023-02-27T17:59:47.972Z,1.80
2023-02-27T18:02:21.029Z,1.70
2023-02-27T18:04:54.741Z,1.70
2023-02-27T18:07:27.872Z,1.66
2023-02-27T18:10:01.605Z,1.60
2023-02-27T18:12:34.841Z,1.54
2023-02-27T18:15:10.276Z,1.50
2023-02-27T18:17:44.527Z,1.44
2023-02-27T18:20:18.568Z,1.40
2023-02-27T18:22:51.806Z,1.30
2023-02-27T18:25:25.087Z,1.30
2023-02-27T18:28:01.455Z,1.20
2023-02-27T18:30:38.581Z,1.10
2023-02-27T18:33:12.720Z,1.10
2023-02-27T18:35:46.034Z,1.00
2023-02-27T18:38:19.430Z,0.98
2023-02-27T18:40:52.723Z,0.90
2023-02-27T18:43:27.111Z,0.80
2023-02-27T18:46:00.738Z,0.74
2023-02-27T18:48:34.037Z,0.70
2023-02-27T18:51:12.401Z,0.60
2023-02-27T18:53:48.876Z,0.60
2023-02-27T18:56:25.024Z,0.50
2023-02-27T18:59:05.424Z,0.44
2023-02-27T19:01:38.564Z,0.40
2023-02-27T19:04:12.204Z,0.38
2023-02-27T19:06:45.949Z,0.30
2023-02-27T19:09:21.918Z,0.26
2023-02-27T19:11:55.223Z,0.20
2023-02-27T19:14:28.753Z,0.20
2023-02-27T19:17:01.879Z,0.18
2023-02-27T19:19:35.619Z,0.10
2023-02-27T19:22:09.006Z,0.10
2023-02-27T19:24:42.322Z,0.04
2023-02-27T19:27:17.337Z,0.00
2023-02-27T19:29:50.574Z,0.00
2023-02-27T19:32:24.404Z,-0.10
2023-02-27T19:34:57.745Z,-0.10
2023-02-27T19:37:30.917Z,-0.10
2023-02-27T19:40:04.262Z,-0.20
2023-02-27T19:42:37.580Z,-0.20
2023-02-27T19:45:12.721Z,-0.20
2023-02-27T19:47:46.833Z,-0.24
2023-02-27T19:50:20.781Z,-0.30
2023-02-27T19:52:53.957Z,-0.30
2023-02-27T19:55:27.861Z,-0.30
2023-02-27T19:58:01.740Z,-0.30
2023-02-27T20:00:35.026Z,-0.34
2023-02-27T20:03:08.361Z,-0.40
2023-02-27T20:05:45.679Z,-0.40
2023-02-27T20:08:19.169Z,-0.40
2023-02-27T20:11:00.669Z,-0.46
2023-02-27T20:13:34.551Z,-0.48
2023-02-27T20:16:11.572Z,-0.50
2023-02-27T20:18:45.260Z,-0.50
2023-02-27T20:21:21.574Z,-0.54
2023-02-27T20:23:56.001Z,-0.60
2023-02-27T20:26:32.310Z,-0.60
2023-02-27T20:29:10.033Z,-0.64
2023-02-27T20:31:46.558Z,-0.70
2023-02-27T20:34:22.643Z,-0.70
2023-02-27T20:36:57.798Z,-0.70
2023-02-27T20:39:31.234Z,-0.70
2023-02-27T20:42:04.684Z,-0.70
2023-02-27T20:44:38.385Z,-0.70
2023-02-27T20:47:12.097Z,-0.70
2023-02-27T20:49:45.288Z,-0.70
2023-02-27T20:52:18.542Z,-0.70
2023-02-27T20:54:51.712Z,-0.70
2023-02-27T20:57:25.066Z,-0.64
2023-02-27T20:59:58.241Z,-0.60
2023-02-27T21:02:31.459Z,-0.58
2023-02-27T21:05:04.911Z,-0.50
2023-02-27T21:07:38.090Z,-0.50
2023-02-27T21:10:13.655Z,-0.50
2023-02-27T21:12:46.724Z,-0.40
2023-02-27T21:15:20.324Z,-0.40
2023-02-27T21:17:53.454Z,-0.30
2023-02-27T21:20:26.867Z,-0.22
2023-02-27T21:22:59.960Z,-0.20
2023-02-27T21:25:33.192Z,-0.10
2023-02-27T21:28:07.264Z,-0.10
2023-02-27T21:30:40.736Z,0.00
2023-02-27T21:33:14.008Z,0.22
2023-02-27T21:35:51.236Z,0.40
2023-02-27T21:38:24.688Z,0.56
2023-02-27T21:40:59.470Z,0.70
2023-02-27T21:43:32.640Z,0.70
2023-02-27T21:46:11.308Z,0.80
2023-02-27T21:48:44.734Z,0.80
2023-02-27T21:51:26.717Z,0.86
2023-02-27T21:54:11.308Z,0.90
2023-02-27T21:56:46.416Z,0.90
2023-02-27T21:59:22.016Z,1.00
2023-02-27T22:01:55.210Z,1.00
2023-02-27T22:04:28.671Z,1.02
2023-02-27T22:07:02.036Z,1.08
2023-02-27T22:09:35.144Z,1.10
2023-02-27T22:12:09.307Z,1.10
2023-02-27T22:14:43.402Z,1.10
2023-02-27T22:17:16.622Z,1.10
2023-02-27T22:19:49.964Z,1.10
2023-02-27T22:22:23.166Z,1.10
2023-02-27T22:24:56.554Z,1.10
2023-02-27T22:27:31.321Z,1.12
2023-02-27T22:30:04.489Z,1.10
2023-02-27T22:32:41.141Z,1.10
2023-02-27T22:35:14.348Z,1.10
2023-02-27T22:37:47.596Z,1.18
2023-02-27T22:40:21.318Z,1.20
2023-02-27T22:42:54.619Z,1.20
2023-02-27T22:45:27.845Z,1.20
2023-02-27T22:48:01.029Z,1.24
2023-02-27T22:50:34.332Z,1.28
2023-02-27T22:53:07.449Z,1.22
2023-02-27T22:55:40.559Z,1.20
2023-02-27T22:58:13.805Z,1.20
2023-02-27T23:00:47.242Z,1.20
2023-02-27T23:03:20.594Z,1.20
2023-02-27T23:05:53.779Z,1.20
2023-02-27T23:08:26.973Z,1.20
2023-02-27T23:11:01.185Z,1.28
2023-02-27T23:13:34.403Z,1.30
2023-02-27T23:16:11.833Z,1.28
2023-02-27T23:18:47.467Z,1.20
2023-02-27T23:21:24.257Z,1.20
2023-02-27T23:23:57.791Z,1.26
2023-02-27T23:26:30.933Z,1.30
2023-02-27T23:29:03.948Z,1.30
2023-02-27T23:31:38.154Z,1.28
2023-02-27T23:34:11.799Z,1.20
2023-02-27T23:36:45.094Z,1.20
2023-02-27T23:39:18.174Z,1.20
2023-02-27T23:41:51.305Z,1.20
2023-02-27T23:44:24.557Z,1.20
2023-02-27T23:46:57.740Z,1.22
2023-02-27T23:49:30.870Z,1.28
2023-02-27T23:52:03.964Z,1.20
2023-02-27T23:54:37.709Z,1.20
2023-02-27T23:57:10.840Z,1.20
2023-02-27T23:59:43.838Z,1.20
